Time;durP1;ratioP1;P1;durP2;ratioP2;P2;SDS_P1;SDS_P2;PMS_P1;PMS_P2;Temp;Humidity;BMP_temperature;BMP_pressure;BME280_temperature;BME280_humidity;BME280_pressure;Samples;Min_cycle;Max_cycle;Signal;HPM_P1;HPM_P2
2024/01/25 00:00:28;;;;;;;3.8;0.9;;;;;;;9.2;100;947.5897;;;;
2024/01/25 00:02:53;;;;;;;2.1;0.8;;;;;;;9.12;100;947.562;;;;
2024/01/25 00:05:18;;;;;;;1.6;1;;;;;;;8.89;100;947.5351;;;;
2024/01/25 00:07:43;;;;;;;1.9;1;;;;;;;8.93;100;947.5823;;;;
2024/01/25 00:10:08;;;;;;;1.8;0.9;;;;;;;8.94;100;947.6356;;;;
2024/01/25 00:12:33;;;;;;;3.8;1.1;;;;;;;9.07;100;947.6624;;;;
2024/01/25 00:14:58;;;;;;;0.9;0.7;;;;;;;8.91;100;947.615;;;;
2024/01/25 00:17:23;;;;;;;1.5;0.7;;;;;;;8.93;100;947.7586;;;;
2024/01/25 00:19:48;;;;;;;3;1;;;;;;;8.93;100;947.7172;;;;
2024/01/25 00:22:13;;;;;;;2;0.7;;;;;;;8.84;100;947.6398;;;;
2024/01/25 00:24:38;;;;;;;2.2;0.9;;;;;;;8.91;100;947.5363;;;;
2024/01/25 00:27:03;;;;;;;2.5;0.9;;;;;;;8.95;99.4707;947.6227;;;;
2024/01/25 00:29:29;;;;;;;2.3;0.9;;;;;;;9.03;99.05664;947.6689;;;;
2024/01/25 00:31:53;;;;;;;1.3;0.8;;;;;;;9.08;98.37305;947.502;;;;
2024/01/25 00:34:19;;;;;;;1.8;0.9;;;;;;;8.88;99.02148;947.5815;;;;
2024/01/25 00:36:44;;;;;;;2.2;1;;;;;;;8.95;98.84473;947.6044;;;;
2024/01/25 00:39:09;;;;;;;0.9;0.7;;;;;;;9.09;98.01074;947.5691;;;;
2024/01/25 00:41:34;;;;;;;2.3;0.7;;;;;;;9.05;97.6709;947.5098;;;;
2024/01/25 00:43:59;;;;;;;2.5;0.6;;;;;;;8.97;97.85938;947.4906;;;;
2024/01/25 00:46:24;;;;;;;2.4;0.7;;;;;;;8.93;97.78223;947.4077;;;;
2024/01/25 00:48:49;;;;;;;0.9;0.6;;;;;;;8.97;97.83887;947.4231;;;;
2024/01/25 00:51:14;;;;;;;1;0.6;;;;;;;8.94;97.63672;947.4794;;;;
2024/01/25 00:53:39;;;;;;;0.8;0.4;;;;;;;8.82;97.94043;947.5099;;;;
2024/01/25 00:56:05;;;;;;;1.9;0.4;;;;;;;8.86;98.03906;947.4578;;;;
2024/01/25 00:58:30;;;;;;;0.5;0.4;;;;;;;8.86;97.8916;947.538;;;;
2024/01/25 01:00:55;;;;;;;0.4;0.4;;;;;;;8.78;97.8252;947.432;;;;
2024/01/25 01:03:20;;;;;;;1.2;0.5;;;;;;;8.87;97.3584;947.4573;;;;
2024/01/25 01:05:45;;;;;;;0.9;0.5;;;;;;;8.95;97.06836;947.582;;;;
2024/01/25 01:08:10;;;;;;;1.4;0.6;;;;;;;8.92;97.12109;947.6266;;;;
2024/01/25 01:10:35;;;;;;;1.9;1.3;;;;;;;8.74;97.94434;947.6603;;;;
2024/01/25 01:13:00;;;;;;;1.5;1.2;;;;;;;8.91;97.35547;947.6222;;;;
2024/01/25 01:15:26;;;;;;;2.1;0.9;;;;;;;8.73;98.04297;947.6854;;;;
2024/01/25 01:17:51;;;;;;;2.7;0.9;;;;;;;8.57;99.04004;947.7935;;;;
2024/01/25 01:20:16;;;;;;;2.9;1.4;;;;;;;8.57;99.14258;947.579;;;;
2024/01/25 01:22:41;;;;;;;2.2;1.3;;;;;;;8.53;99.30664;947.7241;;;;
2024/01/25 01:25:06;;;;;;;3.3;1.3;;;;;;;8.68;98.89453;947.7394;;;;
2024/01/25 01:27:32;;;;;;;2.3;1.2;;;;;;;8.51;99.4248;947.6417;;;;
2024/01/25 01:29:57;;;;;;;2.1;1.2;;;;;;;8.52;99.48438;947.6492;;;;
2024/01/25 01:32:22;;;;;;;1.6;0.8;;;;;;;8.53;99.48633;947.6058;;;;
2024/01/25 01:34:47;;;;;;;2.3;0.7;;;;;;;8.53;98.66797;947.6312;;;;
2024/01/25 01:37:12;;;;;;;1.7;0.7;;;;;;;8.5;99.02539;947.6445;;;;
2024/01/25 01:39:37;;;;;;;0.6;0.5;;;;;;;8.68;97.9502;947.6933;;;;
2024/01/25 01:42:03;;;;;;;0.6;0.6;;;;;;;8.65;97.47852;947.7098;;;;
2024/01/25 01:44:27;;;;;;;0.9;0.4;;;;;;;8.66;97.24121;947.6418;;;;
2024/01/25 01:46:54;;;;;;;1.9;0.6;;;;;;;8.79;96.45117;947.4871;;;;
2024/01/25 01:49:17;;;;;;;1;0.8;;;;;;;8.76;96.06055;947.3766;;;;
2024/01/25 01:51:43;;;;;;;1.1;0.8;;;;;;;8.76;96.00391;947.3639;;;;
2024/01/25 01:54:08;;;;;;;1.1;1;;;;;;;8.75;95.93164;947.3405;;;;
2024/01/25 01:56:33;;;;;;;1.2;0.9;;;;;;;8.64;96.43066;947.407;;;;
2024/01/25 01:58:58;;;;;;;1.1;0.6;;;;;;;8.76;95.84473;947.4131;;;;
2024/01/25 02:01:23;;;;;;;1.3;0.8;;;;;;;8.69;95.58984;947.6057;;;;
2024/01/25 02:03:48;;;;;;;1.3;0.6;;;;;;;8.59;96.11328;947.6713;;;;
2024/01/25 02:06:13;;;;;;;1;0.9;;;;;;;8.53;96.29297;947.7408;;;;
2024/01/25 02:08:38;;;;;;;1.7;0.8;;;;;;;8.52;96.3584;947.6364;;;;
2024/01/25 02:11:03;;;;;;;1.1;0.8;;;;;;;8.52;96.38184;947.519;;;;
2024/01/25 02:13:28;;;;;;;2;0.9;;;;;;;8.51;96.46094;947.6314;;;;
2024/01/25 02:15:53;;;;;;;1.8;1;;;;;;;8.54;96.31738;947.4719;;;;
2024/01/25 02:18:18;;;;;;;1.9;0.8;;;;;;;8.54;96.35352;947.5489;;;;
2024/01/25 02:20:44;;;;;;;0.6;0.6;;;;;;;8.62;95.75586;947.6072;;;;
2024/01/25 02:23:09;;;;;;;0.7;0.6;;;;;;;8.52;95.89258;947.5413;;;;
2024/01/25 02:25:34;;;;;;;1;0.7;;;;;;;8.54;95.56738;947.4973;;;;
2024/01/25 02:27:59;;;;;;;0.7;0.7;;;;;;;8.44;96.31738;947.5011;;;;
2024/01/25 02:30:24;;;;;;;0.7;0.7;;;;;;;8.51;95.86816;947.5503;;;;
2024/01/25 02:32:49;;;;;;;1.2;0.7;;;;;;;8.45;95.87695;947.6252;;;;
2024/01/25 02:35:14;;;;;;;1.5;0.8;;;;;;;8.47;95.6084;947.4871;;;;
2024/01/25 02:37:39;;;;;;;0.6;0.6;;;;;;;8.4;95.55957;947.4155;;;;
2024/01/25 02:40:05;;;;;;;0.5;0.5;;;;;;;8.5;95.60254;947.4642;;;;
2024/01/25 02:42:30;;;;;;;0.7;0.4;;;;;;;8.6;95.02441;947.5212;;;;
2024/01/25 02:44:55;;;;;;;0.5;0.4;;;;;;;8.49;95.31836;947.6273;;;;
2024/01/25 02:47:20;;;;;;;2;0.4;;;;;;;8.44;95.64746;947.6623;;;;
2024/01/25 02:49:45;;;;;;;1.3;0.5;;;;;;;8.56;94.60742;947.6322;;;;
2024/01/25 02:52:10;;;;;;;0.5;0.4;;;;;;;8.43;94.56445;947.5294;;;;
2024/01/25 02:54:36;;;;;;;0.3;0.3;;;;;;;8.47;93.59668;947.5086;;;;
2024/01/25 02:57:00;;;;;;;0.3;0.3;;;;;;;8.36;93.73242;947.6475;;;;
2024/01/25 02:59:25;;;;;;;0.3;0.3;;;;;;;8.36;93.6416;947.5499;;;;
2024/01/25 03:01:50;;;;;;;0.2;0.2;;;;;;;8.26;94.29199;947.579;;;;
2024/01/25 03:04:16;;;;;;;0.3;0.3;;;;;;;8.23;94.25;947.6231;;;;
2024/01/25 03:06:41;;;;;;;0.5;0.4;;;;;;;8.13;94.86426;947.702;;;;
2024/01/25 03:09:06;;;;;;;0.6;0.4;;;;;;;8.14;94.86621;947.6626;;;;
2024/01/25 03:11:31;;;;;;;0.8;0.2;;;;;;;8.13;95.30664;947.6815;;;;
2024/01/25 03:13:56;;;;;;;0.3;0.3;;;;;;;8.12;95.57715;947.6335;;;;
2024/01/25 03:16:21;;;;;;;0.9;0.4;;;;;;;8.23;94.65918;947.7296;;;;
2024/01/25 03:18:46;;;;;;;0.6;0.3;;;;;;;8.21;94.9502;947.6827;;;;
2024/01/25 03:21:11;;;;;;;0.8;0.5;;;;;;;8.16;95.23535;947.7111;;;;
2024/01/25 03:23:36;;;;;;;0.8;0.4;;;;;;;8.09;95.86426;947.5831;;;;
2024/01/25 03:26:02;;;;;;;0.5;0.4;;;;;;;8.18;95.75;947.695;;;;
2024/01/25 03:28:27;;;;;;;0.4;0.4;;;;;;;8.12;95.74512;947.6705;;;;
2024/01/25 03:30:52;;;;;;;0.7;0.4;;;;;;;8.14;96.11523;947.6136;;;;
2024/01/25 03:33:17;;;;;;;0.3;0.2;;;;;;;8.26;94.91699;947.5711;;;;
2024/01/25 03:35:42;;;;;;;0.2;0.2;;;;;;;8.32;94.20117;947.6848;;;;
2024/01/25 03:38:07;;;;;;;0.2;0.2;;;;;;;8.2;94.50488;947.6941;;;;
2024/01/25 03:40:33;;;;;;;0.5;0.3;;;;;;;8.16;94.96094;947.6069;;;;
2024/01/25 03:42:57;;;;;;;0.5;0.3;;;;;;;8.19;94.90039;947.6121;;;;
2024/01/25 03:45:23;;;;;;;0.5;0.3;;;;;;;8.16;94.97363;947.6483;;;;
2024/01/25 03:47:48;;;;;;;0.4;0.4;;;;;;;8.17;94.84961;947.6208;;;;
2024/01/25 03:50:13;;;;;;;1.7;0.5;;;;;;;7.96;95.68848;947.6103;;;;
2024/01/25 03:52:38;;;;;;;0.5;0.3;;;;;;;8;95.60742;947.5538;;;;
2024/01/25 03:55:04;;;;;;;0.8;0.4;;;;;;;7.96;95.93848;947.6127;;;;
2024/01/25 03:57:28;;;;;;;0.6;0.3;;;;;;;7.97;96.14258;947.5661;;;;
2024/01/25 03:59:53;;;;;;;0.2;0.2;;;;;;;7.97;96.12207;947.544;;;;
2024/01/25 04:02:31;;;;;;;0.9;0.3;;;;;;;7.86;96.80078;947.5778;;;;
2024/01/25 04:04:56;;;;;;;1;0.4;;;;;;;7.82;97.08594;947.6323;;;;
2024/01/25 04:07:21;;;;;;;0.4;0.3;;;;;;;7.78;97.20313;947.6791;;;;
2024/01/25 04:09:46;;;;;;;0.3;0.3;;;;;;;7.81;96.81152;947.7225;;;;
2024/01/25 04:12:11;;;;;;;0.3;0.3;;;;;;;7.85;96.5498;947.7358;;;;
2024/01/25 04:14:36;;;;;;;0.5;0.3;;;;;;;7.88;96.24902;947.793;;;;
2024/01/25 04:17:02;;;;;;;0.8;0.6;;;;;;;7.92;95.91699;947.8262;;;;
2024/01/25 04:19:27;;;;;;;0.7;0.3;;;;;;;7.97;95.9834;947.8055;;;;
2024/01/25 04:21:52;;;;;;;0.2;0.2;;;;;;;7.92;96.25781;947.8015;;;;
2024/01/25 04:24:17;;;;;;;0.2;0.2;;;;;;;7.91;96.42578;947.7925;;;;
2024/01/25 04:26:42;;;;;;;0.4;0.2;;;;;;;7.88;96.60352;947.8447;;;;
2024/01/25 04:29:08;;;;;;;0.3;0.3;;;;;;;7.85;96.67188;947.9434;;;;
2024/01/25 04:31:33;;;;;;;0.2;0.2;;;;;;;7.84;96.59082;947.9692;;;;
2024/01/25 04:33:58;;;;;;;0.3;0.3;;;;;;;7.86;96.5625;948.1104;;;;
2024/01/25 04:36:23;;;;;;;0.3;0.3;;;;;;;7.89;96.52344;948.1407;;;;
2024/01/25 04:38:48;;;;;;;0.7;0.4;;;;;;;7.82;97.08789;948.2009;;;;
2024/01/25 04:41:13;;;;;;;0.3;0.3;;;;;;;7.88;96.81836;948.1825;;;;
2024/01/25 04:43:38;;;;;;;0.6;0.4;;;;;;;7.86;96.79004;948.0842;;;;
2024/01/25 04:46:04;;;;;;;1.9;0.7;;;;;;;7.85;96.72168;948.1362;;;;
2024/01/25 04:48:29;;;;;;;2;1;;;;;;;7.82;96.88379;948.1083;;;;
2024/01/25 04:50:54;;;;;;;1.5;1;;;;;;;7.84;97.00098;948.1255;;;;
2024/01/25 04:53:19;;;;;;;1.7;0.7;;;;;;;7.8;96.98145;948.1158;;;;
2024/01/25 04:55:44;;;;;;;1.7;0.8;;;;;;;7.72;97.73535;948.1519;;;;
2024/01/25 04:58:09;;;;;;;2.9;1;;;;;;;7.63;97.91895;948.117;;;;
2024/01/25 05:00:35;;;;;;;1.6;0.9;;;;;;;7.65;97.62793;948.2619;;;;
2024/01/25 05:03:00;;;;;;;1.2;0.8;;;;;;;7.73;97.39453;948.1648;;;;
2024/01/25 05:05:24;;;;;;;2;0.7;;;;;;;7.76;97.10547;948.1912;;;;
2024/01/25 05:07:50;;;;;;;1.8;0.7;;;;;;;7.8;97.07227;948.2166;;;;
2024/01/25 05:10:15;;;;;;;0.8;0.6;;;;;;;7.79;97.20508;948.0489;;;;
2024/01/25 05:12:43;;;;;;;1.1;0.8;;;;;;;7.72;97.91406;948.2263;;;;
2024/01/25 05:15:06;;;;;;;1.1;0.7;;;;;;;7.7;97.93457;948.2907;;;;
2024/01/25 05:17:31;;;;;;;0.8;0.8;;;;;;;7.71;98.12988;948.2761;;;;
2024/01/25 05:19:56;;;;;;;0.7;0.7;;;;;;;7.73;98.14551;948.3783;;;;
2024/01/25 05:22:21;;;;;;;0.8;0.7;;;;;;;7.74;98.08887;948.3833;;;;
2024/01/25 05:24:46;;;;;;;0.7;0.7;;;;;;;7.69;98.26172;948.4704;;;;
2024/01/25 05:27:12;;;;;;;1.7;1;;;;;;;7.6;98.43359;948.538;;;;
2024/01/25 05:29:37;;;;;;;1.8;1.5;;;;;;;7.66;98.39941;948.5737;;;;
2024/01/25 05:32:02;;;;;;;3;1;;;;;;;7.69;98.06738;948.6407;;;;
2024/01/25 05:34:27;;;;;;;0.6;0.5;;;;;;;7.63;98.08691;948.6217;;;;
2024/01/25 05:36:52;;;;;;;0.8;0.6;;;;;;;7.61;97.79883;948.6139;;;;
2024/01/25 05:39:17;;;;;;;1.8;1.4;;;;;;;7.62;97.39453;948.6241;;;;
2024/01/25 05:41:44;;;;;;;1.6;0.9;;;;;;;7.57;97.24609;948.575;;;;
2024/01/25 05:44:08;;;;;;;1.5;0.6;;;;;;;7.56;97.41211;948.7449;;;;
2024/01/25 05:46:33;;;;;;;1.1;0.6;;;;;;;7.52;97.49707;948.8259;;;;
2024/01/25 05:48:58;;;;;;;1.2;1.1;;;;;;;7.49;98.13477;948.8739;;;;
2024/01/25 05:51:23;;;;;;;1.2;1.1;;;;;;;7.35;99.09961;948.8309;;;;
2024/01/25 05:53:48;;;;;;;1.9;0.8;;;;;;;7.35;99.06543;948.8103;;;;
2024/01/25 05:56:13;;;;;;;0.9;0.6;;;;;;;7.39;98.37305;948.8292;;;;
2024/01/25 05:58:39;;;;;;;0.8;0.6;;;;;;;7.41;97.90137;948.8455;;;;
2024/01/25 06:01:04;;;;;;;1;0.6;;;;;;;7.48;97.61133;948.8625;;;;
2024/01/25 06:03:28;;;;;;;0.4;0.3;;;;;;;7.49;97.2168;948.835;;;;
2024/01/25 06:05:54;;;;;;;1.9;1;;;;;;;7.52;96.65625;948.92;;;;
2024/01/25 06:08:19;;;;;;;1.5;0.9;;;;;;;7.47;96.57813;948.9673;;;;
2024/01/25 06:10:44;;;;;;;0.7;0.6;;;;;;;7.44;96.37891;949.002;;;;
2024/01/25 06:13:09;;;;;;;1.5;1;;;;;;;7.5;95.86914;948.971;;;;
2024/01/25 06:15:34;;;;;;;2.5;1.1;;;;;;;7.4;96.15332;948.9891;;;;
2024/01/25 06:17:59;;;;;;;0.9;0.5;;;;;;;7.37;96.14746;949.0623;;;;
2024/01/25 06:20:24;;;;;;;0.7;0.4;;;;;;;7.31;96.4502;949.0464;;;;
2024/01/25 06:22:49;;;;;;;0.3;0.3;;;;;;;7.27;96.79395;949.0228;;;;
2024/01/25 06:25:14;;;;;;;0.5;0.3;;;;;;;7.29;96.69531;949.1172;;;;
2024/01/25 06:27:39;;;;;;;0.5;0.5;;;;;;;7.27;96.80273;949.0955;;;;
2024/01/25 06:30:05;;;;;;;0.3;0.3;;;;;;;7.22;97.28027;949.2371;;;;
2024/01/25 06:32:30;;;;;;;0.5;0.4;;;;;;;7.3;96.90137;949.2325;;;;
2024/01/25 06:34:55;;;;;;;4.2;1.5;;;;;;;7.27;97.16797;949.2897;;;;
2024/01/25 06:37:20;;;;;;;4;2.2;;;;;;;7.27;97.23535;949.3469;;;;
2024/01/25 06:39:45;;;;;;;4.8;2.9;;;;;;;7.31;97.21191;949.3486;;;;
2024/01/25 06:42:10;;;;;;;3.6;2.3;;;;;;;7.3;97.66113;949.3613;;;;
2024/01/25 06:44:35;;;;;;;2.4;1.9;;;;;;;7.25;97.54688;949.4483;;;;
2024/01/25 06:47:00;;;;;;;2;1.4;;;;;;;7.23;96.94238;949.4522;;;;
2024/01/25 06:49:25;;;;;;;1.1;1;;;;;;;7.21;96.39453;949.5283;;;;
2024/01/25 06:51:50;;;;;;;1.3;0.9;;;;;;;7.18;96.1709;949.5244;;;;
2024/01/25 06:54:15;;;;;;;1.5;1;;;;;;;7.18;96.375;949.4965;;;;
2024/01/25 06:56:41;;;;;;;1.3;1;;;;;;;7.25;95.83594;949.3672;;;;
2024/01/25 06:59:06;;;;;;;1.2;1.1;;;;;;;7.16;96.06641;949.4825;;;;
2024/01/25 07:01:32;;;;;;;1.9;1;;;;;;;7.19;95.85742;949.5557;;;;
2024/01/25 07:03:56;;;;;;;3.7;1.1;;;;;;;7.18;95.58203;949.6241;;;;
2024/01/25 07:06:21;;;;;;;1;0.8;;;;;;;7.01;95.76074;949.7241;;;;
2024/01/25 07:08:46;;;;;;;0.5;0.5;;;;;;;6.99;96.04004;949.6866;;;;
2024/01/25 07:11:12;;;;;;;0.8;0.8;;;;;;;6.92;96.47656;949.7883;;;;
2024/01/25 07:13:37;;;;;;;0.9;0.8;;;;;;;6.95;96.52832;949.7999;;;;
2024/01/25 07:16:02;;;;;;;0.6;0.6;;;;;;;7.01;95.80566;949.8531;;;;
2024/01/25 07:18:27;;;;;;;1.7;0.8;;;;;;;7.08;94.80273;949.8831;;;;
2024/01/25 07:20:52;;;;;;;1;0.7;;;;;;;6.98;95.08496;949.945;;;;
2024/01/25 07:23:17;;;;;;;0.6;0.6;;;;;;;6.91;95.97656;949.92;;;;
2024/01/25 07:25:42;;;;;;;0.6;0.6;;;;;;;6.92;96.20313;949.8736;;;;
2024/01/25 07:28:07;;;;;;;1.4;0.7;;;;;;;6.87;96.57715;949.8597;;;;
2024/01/25 07:30:32;;;;;;;2.6;1.1;;;;;;;6.83;96.96582;949.9182;;;;
2024/01/25 07:32:58;;;;;;;2.7;1.1;;;;;;;6.76;97.3457;950.0228;;;;
2024/01/25 07:35:23;;;;;;;2;1.2;;;;;;;6.73;97.32813;950.0396;;;;
2024/01/25 07:37:48;;;;;;;1.9;1.2;;;;;;;6.73;97.28223;950.045;;;;
2024/01/25 07:40:13;;;;;;;1.6;1.3;;;;;;;6.75;97.11523;950.0117;;;;
2024/01/25 07:42:38;;;;;;;2.5;1.1;;;;;;;6.83;96.32227;950.0214;;;;
2024/01/25 07:45:03;;;;;;;1;1;;;;;;;6.69;96.24219;950.0783;;;;
2024/01/25 07:47:28;;;;;;;1.3;1;;;;;;;6.75;96.09863;950.0586;;;;
2024/01/25 07:49:53;;;;;;;1.4;0.9;;;;;;;6.82;95.58301;950.0121;;;;
2024/01/25 07:52:18;;;;;;;1.2;1;;;;;;;6.75;96.0625;950.0656;;;;
2024/01/25 07:54:44;;;;;;;1.6;1.4;;;;;;;6.74;96.41309;950.1151;;;;
2024/01/25 07:57:08;;;;;;;1.4;1.2;;;;;;;6.67;96.73438;950.0978;;;;
2024/01/25 07:59:34;;;;;;;0.4;0.4;;;;;;;6.67;96.41016;950.1907;;;;
2024/01/25 08:01:59;;;;;;;0.2;0.2;;;;;;;6.65;96.33594;950.1019;;;;
2024/01/25 08:04:24;;;;;;;0.5;0.3;;;;;;;6.61;96.26074;950.0631;;;;
2024/01/25 08:06:49;;;;;;;0.8;0.6;;;;;;;6.59;96.44629;950.1157;;;;
2024/01/25 08:09:14;;;;;;;0.9;0.6;;;;;;;6.6;96.50684;950.158;;;;
2024/01/25 08:11:40;;;;;;;2.2;1.2;;;;;;;6.65;96.51953;950.2753;;;;
2024/01/25 08:14:05;;;;;;;2.6;1.5;;;;;;;6.61;97.12012;950.2996;;;;
2024/01/25 08:16:29;;;;;;;1.9;1.3;;;;;;;6.56;97.00586;950.3511;;;;
2024/01/25 08:18:54;;;;;;;1.1;1;;;;;;;6.62;95.89844;950.4264;;;;
2024/01/25 08:21:19;;;;;;;1.4;0.8;;;;;;;6.62;95.48145;950.4583;;;;
2024/01/25 08:23:45;;;;;;;1.1;0.8;;;;;;;6.53;95.58594;950.394;;;;
2024/01/25 08:26:12;;;;;;;2.2;1.3;;;;;;;6.53;95.80078;950.4334;;;;
2024/01/25 08:28:35;;;;;;;2.6;1.5;;;;;;;6.54;95.84863;950.4601;;;;
2024/01/25 08:31:00;;;;;;;1.2;0.9;;;;;;;6.55;95.35254;950.5403;;;;
2024/01/25 08:33:26;;;;;;;2.2;1.1;;;;;;;6.52;95.58398;950.5574;;;;
2024/01/25 08:35:51;;;;;;;1;0.9;;;;;;;6.54;95.70117;950.4927;;;;
2024/01/25 08:38:15;;;;;;;0.9;0.9;;;;;;;6.52;95.78711;950.6633;;;;
2024/01/25 08:40:40;;;;;;;1.8;0.8;;;;;;;6.62;95.60645;950.7203;;;;
2024/01/25 08:43:07;;;;;;;1.1;1;;;;;;;6.54;96.06152;950.8311;;;;
2024/01/25 08:45:31;;;;;;;2;1.7;;;;;;;6.57;96.36328;950.803;;;;
2024/01/25 08:47:56;;;;;;;2;1.7;;;;;;;6.53;96.40039;950.7977;;;;
2024/01/25 08:50:21;;;;;;;1.2;1.1;;;;;;;6.49;96.38867;950.8422;;;;
2024/01/25 08:52:46;;;;;;;2.7;1.5;;;;;;;6.5;96.53906;950.8483;;;;
2024/01/25 08:55:12;;;;;;;2.2;1.4;;;;;;;6.55;96.4502;950.7642;;;;
2024/01/25 08:57:36;;;;;;;2.6;1.6;;;;;;;6.57;96.41992;950.8958;;;;
2024/01/25 09:00:01;;;;;;;2;1.7;;;;;;;6.56;96.75684;950.8391;;;;
2024/01/25 09:02:29;;;;;;;1.7;1.5;;;;;;;6.54;96.80957;950.8145;;;;
2024/01/25 09:04:52;;;;;;;1.2;1.1;;;;;;;6.44;96.57227;950.7325;;;;
2024/01/25 09:07:16;;;;;;;2.4;0.9;;;;;;;6.47;96.70117;950.9125;;;;
2024/01/25 09:09:42;;;;;;;1.1;0.9;;;;;;;6.46;96.9043;950.7847;;;;
2024/01/25 09:12:08;;;;;;;1.8;1.5;;;;;;;6.48;96.81836;950.9338;;;;
2024/01/25 09:14:32;;;;;;;1.5;1.4;;;;;;;6.49;96.57129;950.9041;;;;
2024/01/25 09:16:57;;;;;;;32.5;24.5;;;;;;;6.46;96.92676;950.9297;;;;
2024/01/25 09:19:22;;;;;;;14.7;11.5;;;;;;;6.48;97.44043;950.8625;;;;
2024/01/25 09:21:47;;;;;;;4.2;3.2;;;;;;;6.54;97.18066;950.8207;;;;
2024/01/25 09:24:12;;;;;;;3.2;2.4;;;;;;;6.5;97.50098;950.7287;;;;
2024/01/25 09:26:38;;;;;;;4.2;3.2;;;;;;;6.49;97.40625;950.7963;;;;
2024/01/25 09:29:03;;;;;;;5.4;4.5;;;;;;;6.5;97.86523;950.7875;;;;
2024/01/25 09:31:28;;;;;;;6.2;4.3;;;;;;;6.54;97.89355;950.8713;;;;
2024/01/25 09:33:54;;;;;;;5.5;4;;;;;;;6.49;98.1416;950.9545;;;;
2024/01/25 09:36:18;;;;;;;5.4;3.6;;;;;;;6.55;97.25293;950.9986;;;;
2024/01/25 09:38:43;;;;;;;3.7;2.7;;;;;;;6.56;97.39063;951.064;;;;
2024/01/25 09:41:08;;;;;;;2.9;2.1;;;;;;;6.48;97.46289;951.1024;;;;
2024/01/25 09:43:33;;;;;;;2.5;2;;;;;;;6.51;96.99414;951.1472;;;;
2024/01/25 09:45:59;;;;;;;1.7;1.6;;;;;;;6.59;95.98242;951.1687;;;;
2024/01/25 09:48:24;;;;;;;2.1;1.9;;;;;;;6.59;96.25391;951.1255;;;;
2024/01/25 09:50:49;;;;;;;2;1.4;;;;;;;6.66;96.68945;951.0322;;;;
2024/01/25 09:53:14;;;;;;;1.6;1.5;;;;;;;6.62;97.06543;951.0772;;;;
2024/01/25 09:55:39;;;;;;;1.5;1.4;;;;;;;6.62;97.03223;951.0044;;;;
2024/01/25 09:58:07;;;;;;;3.2;2;;;;;;;6.72;97.00684;951.015;;;;
2024/01/25 10:00:29;;;;;;;3.2;2.9;;;;;;;6.81;97.06348;951.0519;;;;
2024/01/25 10:02:54;;;;;;;4.3;3;;;;;;;6.88;96.81738;951.0983;;;;
2024/01/25 10:05:19;;;;;;;3.6;2.9;;;;;;;6.92;96.85938;951.0803;;;;
2024/01/25 10:07:45;;;;;;;3.1;2.9;;;;;;;6.93;96.93359;951.157;;;;
2024/01/25 10:10:10;;;;;;;3.8;2.7;;;;;;;6.96;96.81543;951.0427;;;;
2024/01/25 10:12:35;;;;;;;3.2;2.7;;;;;;;6.99;97.02539;951.0723;;;;
2024/01/25 10:15:00;;;;;;;3.7;2.6;;;;;;;7.07;96.55469;950.9821;;;;
2024/01/25 10:17:25;;;;;;;2.9;2.1;;;;;;;7.11;96.34961;951.0082;;;;
2024/01/25 10:19:51;;;;;;;2.1;1.9;;;;;;;7.14;95.7793;950.9319;;;;
2024/01/25 10:22:16;;;;;;;1.7;1.3;;;;;;;7.14;94.40723;950.8803;;;;
2024/01/25 10:24:41;;;;;;;1.3;1.2;;;;;;;7.19;94.65723;950.9037;;;;
2024/01/25 10:27:06;;;;;;;2.7;1.9;;;;;;;7.3;94.88477;950.9058;;;;
2024/01/25 10:29:31;;;;;;;2;1.4;;;;;;;7.27;94.93555;950.9717;;;;
2024/01/25 10:31:56;;;;;;;2.4;1.5;;;;;;;7.37;94.00293;951.0352;;;;
2024/01/25 10:34:21;;;;;;;2.3;1.3;;;;;;;7.39;93.68066;951.0162;;;;
2024/01/25 10:36:46;;;;;;;2;1.4;;;;;;;7.43;93.00977;950.9709;;;;
2024/01/25 10:39:11;;;;;;;1.5;1.3;;;;;;;7.45;92.95703;951.0073;;;;
2024/01/25 10:41:36;;;;;;;1.6;1.5;;;;;;;7.47;93.12012;951.0231;;;;
2024/01/25 10:44:01;;;;;;;2.4;1.8;;;;;;;7.5;93.85156;951.0015;;;;
2024/01/25 10:46:26;;;;;;;1.9;1.7;;;;;;;7.49;93.25977;950.9114;;;;
2024/01/25 10:48:51;;;;;;;1.9;1.5;;;;;;;7.48;93.62109;950.9619;;;;
2024/01/25 10:51:18;;;;;;;2.9;1.9;;;;;;;7.56;94.55469;950.8865;;;;
2024/01/25 10:53:42;;;;;;;3.6;2.1;;;;;;;7.51;95.06445;950.8962;;;;
2024/01/25 10:56:07;;;;;;;2.8;2.1;;;;;;;7.48;96.1582;950.9411;;;;
2024/01/25 10:58:33;;;;;;;2.6;2.1;;;;;;;7.49;96.32129;950.8448;;;;
2024/01/25 11:00:58;;;;;;;4.6;2.3;;;;;;;7.57;96.20117;950.8971;;;;
2024/01/25 11:03:22;;;;;;;3.1;2.3;;;;;;;7.59;95.9668;950.9217;;;;
2024/01/25 11:05:48;;;;;;;3.9;1.9;;;;;;;7.57;95.1377;950.8837;;;;
2024/01/25 11:08:12;;;;;;;1.7;1.4;;;;;;;7.58;94.79883;950.8452;;;;
2024/01/25 11:10:38;;;;;;;3.7;2.7;;;;;;;7.7;94.47363;950.848;;;;
2024/01/25 11:13:03;;;;;;;2.4;1.6;;;;;;;7.74;93.38086;950.8162;;;;
2024/01/25 11:15:28;;;;;;;3.2;1.7;;;;;;;7.63;93.95898;950.7178;;;;
2024/01/25 11:17:53;;;;;;;2.1;1.9;;;;;;;7.68;93.20996;950.5961;;;;
2024/01/25 11:20:18;;;;;;;3.8;3;;;;;;;7.7;93.49805;950.5276;;;;
2024/01/25 11:22:43;;;;;;;4.2;2.9;;;;;;;7.6;94.21387;950.4933;;;;
2024/01/25 11:25:09;;;;;;;4.9;3.1;;;;;;;7.66;94.35156;950.394;;;;
2024/01/25 11:27:34;;;;;;;3.9;2.4;;;;;;;7.75;94.05469;950.3555;;;;
2024/01/25 11:29:59;;;;;;;3.8;2.1;;;;;;;7.78;93.74219;950.2233;;;;
2024/01/25 11:32:24;;;;;;;2.6;1.9;;;;;;;7.84;94.41406;950.1794;;;;
2024/01/25 11:34:50;;;;;;;2.9;2.1;;;;;;;7.84;94.90039;950.0626;;;;
2024/01/25 11:37:17;;;;;;;5.5;3.2;;;;;;;7.9;94.08789;950.2015;;;;
2024/01/25 11:39:40;;;;;;;2;1.5;;;;;;;7.86;92.51172;950.2126;;;;
2024/01/25 11:42:05;;;;;;;2.6;1.7;;;;;;;7.85;92.66895;950.1216;;;;
2024/01/25 11:44:30;;;;;;;1.5;1.4;;;;;;;7.8;92.1377;950.0895;;;;
2024/01/25 11:46:55;;;;;;;1.6;1.3;;;;;;;7.89;91.2832;950.06;;;;
2024/01/25 11:49:20;;;;;;;1.4;1.2;;;;;;;7.92;91.24316;949.9968;;;;
2024/01/25 11:51:45;;;;;;;1.2;1.1;;;;;;;7.95;92.19141;949.9583;;;;
2024/01/25 11:54:10;;;;;;;2.6;1.7;;;;;;;8.04;91.4248;949.9;;;;
2024/01/25 11:56:36;;;;;;;3.7;2.3;;;;;;;8.05;91.44043;949.9188;;;;
2024/01/25 11:59:01;;;;;;;1.8;1.5;;;;;;;8.11;90.51172;949.8694;;;;
2024/01/25 12:01:26;;;;;;;2;1.1;;;;;;;8.15;89.34961;949.8731;;;;
2024/01/25 12:03:51;;;;;;;0.9;0.9;;;;;;;8.18;89.01465;949.8172;;;;
2024/01/25 12:06:16;;;;;;;1.7;1.2;;;;;;;8.12;89.10547;949.7198;;;;
2024/01/25 12:08:41;;;;;;;3.3;1.5;;;;;;;8.23;88.88965;949.6479;;;;
2024/01/25 12:11:06;;;;;;;1.2;1.1;;;;;;;8.17;88.01367;949.6019;;;;
2024/01/25 12:13:31;;;;;;;2.7;1.5;;;;;;;8.23;88.23047;949.5337;;;;
2024/01/25 12:15:56;;;;;;;2.7;1.8;;;;;;;8.23;88.49219;949.367;;;;
2024/01/25 12:18:22;;;;;;;2.9;2;;;;;;;8.19;89.71094;949.3258;;;;
2024/01/25 12:20:47;;;;;;;2.5;2;;;;;;;8.28;88.67383;949.2166;;;;
2024/01/25 12:23:13;;;;;;;2.4;1.8;;;;;;;8.33;88.87598;949.3444;;;;
2024/01/25 12:25:37;;;;;;;2.4;1.7;;;;;;;8.35;89.07227;949.3985;;;;
2024/01/25 12:28:02;;;;;;;2.6;1.8;;;;;;;8.34;88.96875;949.3611;;;;
2024/01/25 12:30:27;;;;;;;3.9;2.1;;;;;;;8.37;88.7373;949.2495;;;;
2024/01/25 12:32:52;;;;;;;2.9;1.8;;;;;;;8.39;88.90039;949.2557;;;;
2024/01/25 12:35:17;;;;;;;2.1;1.1;;;;;;;8.42;88.47461;949.3149;;;;
2024/01/25 12:37:42;;;;;;;1.9;1.2;;;;;;;8.42;88.13281;949.2195;;;;
2024/01/25 12:40:08;;;;;;;1.5;1.4;;;;;;;8.34;88.88867;949.2816;;;;
2024/01/25 12:42:33;;;;;;;1.7;1.2;;;;;;;8.47;89.14258;949.3134;;;;
2024/01/25 12:44:58;;;;;;;1.2;1;;;;;;;8.49;88.44336;949.188;;;;
2024/01/25 12:47:24;;;;;;;1.4;1;;;;;;;8.44;89.44336;949.1392;;;;
2024/01/25 12:49:48;;;;;;;1.3;1;;;;;;;8.56;89.01563;949.2062;;;;
2024/01/25 12:52:13;;;;;;;1.5;1.2;;;;;;;8.52;89.67676;949.1724;;;;
2024/01/25 12:54:38;;;;;;;1.1;0.9;;;;;;;8.57;87.44824;949.1225;;;;
2024/01/25 12:57:03;;;;;;;1.1;0.9;;;;;;;8.61;86.43164;949.1697;;;;
2024/01/25 12:59:29;;;;;;;1.4;1;;;;;;;8.65;87.29492;949.1646;;;;
2024/01/25 13:01:54;;;;;;;1.5;1.4;;;;;;;8.59;88.30469;949.1858;;;;
2024/01/25 13:04:20;;;;;;;1.3;0.9;;;;;;;8.54;88.05664;949.1041;;;;
2024/01/25 13:06:44;;;;;;;0.9;0.9;;;;;;;8.45;88.18457;949.1731;;;;
2024/01/25 13:09:09;;;;;;;2.4;1.5;;;;;;;8.58;87.67773;949.0808;;;;
2024/01/25 13:11:35;;;;;;;1.5;1.2;;;;;;;8.44;89.33203;949.1102;;;;
2024/01/25 13:13:59;;;;;;;1.5;1.4;;;;;;;8.44;88.27344;949.0916;;;;
2024/01/25 13:16:24;;;;;;;2;1.4;;;;;;;8.44;89.25098;949.0687;;;;
2024/01/25 13:18:50;;;;;;;1.9;1.6;;;;;;;8.5;89.20508;949.1105;;;;
2024/01/25 13:21:15;;;;;;;1.4;1.3;;;;;;;8.55;88.36328;949.105;;;;
2024/01/25 13:23:40;;;;;;;2.8;1.2;;;;;;;8.47;88.62012;949.0189;;;;
2024/01/25 13:26:05;;;;;;;1.3;0.9;;;;;;;8.43;87.6123;948.9858;;;;
2024/01/25 13:28:32;;;;;;;1.1;1;;;;;;;8.49;87.90723;948.995;;;;
2024/01/25 13:30:56;;;;;;;1.9;1.2;;;;;;;8.4;88.5957;949.037;;;;
2024/01/25 13:33:20;;;;;;;2.4;1.4;;;;;;;8.43;88.9082;948.9874;;;;
2024/01/25 13:35:46;;;;;;;1.3;1.2;;;;;;;8.43;89.48535;948.9548;;;;
2024/01/25 13:38:14;;;;;;;2.3;1.8;;;;;;;8.38;89.53418;948.9855;;;;
2024/01/25 13:40:36;;;;;;;2.2;2;;;;;;;8.45;89.57031;948.9913;;;;
2024/01/25 13:43:01;;;;;;;2.2;1.6;;;;;;;8.39;89.00293;948.9677;;;;
2024/01/25 13:45:26;;;;;;;1.2;1.1;;;;;;;8.41;88.28906;948.9347;;;;
2024/01/25 13:47:51;;;;;;;0.8;0.8;;;;;;;8.4;89.65039;948.9163;;;;
2024/01/25 13:50:16;;;;;;;1.1;0.7;;;;;;;8.42;90.20117;948.9188;;;;
2024/01/25 13:52:42;;;;;;;1;0.9;;;;;;;8.5;88.875;948.9572;;;;
2024/01/25 13:55:06;;;;;;;1.7;0.9;;;;;;;8.5;89.07031;948.8979;;;;
2024/01/25 13:57:31;;;;;;;1;0.9;;;;;;;8.48;89.20313;948.8401;;;;
2024/01/25 13:59:57;;;;;;;1.1;0.7;;;;;;;8.47;89.25586;948.8158;;;;
2024/01/25 14:02:22;;;;;;;1;0.8;;;;;;;8.52;89.6875;948.8144;;;;
2024/01/25 14:04:47;;;;;;;0.8;0.8;;;;;;;8.63;89.48145;948.8119;;;;
2024/01/25 14:07:12;;;;;;;1.8;1.2;;;;;;;8.56;90.71973;948.7299;;;;
2024/01/25 14:09:37;;;;;;;2.5;1.3;;;;;;;8.56;90.92285;948.5773;;;;
2024/01/25 14:12:02;;;;;;;3;1.9;;;;;;;8.56;91.74121;948.5154;;;;
2024/01/25 14:14:27;;;;;;;4.1;2.7;;;;;;;8.5;93.13867;948.4128;;;;
2024/01/25 14:16:52;;;;;;;4.5;4.1;;;;;;;8.6;93.12598;948.3535;;;;
2024/01/25 14:19:20;;;;;;;4;3.4;;;;;;;8.52;93.41504;948.4578;;;;
2024/01/25 14:21:43;;;;;;;4.4;4;;;;;;;8.53;93.28125;948.5003;;;;
2024/01/25 14:24:08;;;;;;;3.5;3.2;;;;;;;8.56;93.00488;948.4578;;;;
2024/01/25 14:26:33;;;;;;;3.5;2.2;;;;;;;8.6;93.2627;948.4478;;;;